Time;durP1;ratioP1;P1;durP2;ratioP2;P2;SDS_P1;SDS_P2;PMS_P1;PMS_P2;Temp;Humidity;BMP_temperature;BMP_pressure;BME280_temperature;BME280_humidity;BME280_pressure;Samples;Min_cycle;Max_cycle;Signal;HPM_P1;HPM_P2
2023/08/01 00:00:48;;;;;;;5.50;2.35;;;22.70;96.20;;;;;;5033184;28;20115;-63
2023/08/01 00:03:14;;;;;;;6.45;2.75;;;22.60;97.50;;;;;;5035255;28;20049;-63
2023/08/01 00:05:44;;;;;;;4.93;2.20;;;22.50;96.10;;;;;;5035014;28;20042;-68
2023/08/01 00:08:13;;;;;;;5.82;3.05;;;22.40;96.10;;;;;;5033643;28;20108;-63
2023/08/01 00:10:39;;;;;;;5.07;2.10;;;22.60;96.20;;;;;;5065095;28;20130;-70
2023/08/01 00:13:05;;;;;;;5.70;2.30;;;22.40;96.50;;;;;;5033204;28;20391;-66
2023/08/01 00:15:31;;;;;;;7.43;2.58;;;22.50;96.10;;;;;;5016399;28;20042;-63
2023/08/01 00:17:57;;;;;;;6.28;2.60;;;22.50;97.40;;;;;;5013876;28;20502;-64
2023/08/01 00:20:22;;;;;;;8.13;2.88;;;22.40;97.20;;;;;;5022774;28;20510;-65
2023/08/01 00:22:48;;;;;;;6.30;2.35;;;22.50;96.00;;;;;;5029333;28;20049;-62
2023/08/01 00:25:14;;;;;;;7.38;2.90;;;22.40;96.00;;;;;;5034426;28;20034;-63
2023/08/01 00:27:40;;;;;;;6.95;2.67;;;22.60;96.00;;;;;;5016864;28;20041;-63
2023/08/01 00:30:06;;;;;;;6.93;2.40;;;22.30;97.10;;;;;;5031570;28;20471;-63
2023/08/01 00:32:32;;;;;;;6.70;2.70;;;22.50;95.90;;;;;;5033548;28;20072;-63
2023/08/01 00:34:58;;;;;;;7.03;2.85;;;22.60;96.00;;;;;;5034514;28;20050;-65
2023/08/01 00:37:24;;;;;;;6.65;2.55;;;22.30;95.90;;;;;;5033941;28;20402;-62
2023/08/01 00:39:50;;;;;;;7.82;2.63;;;22.50;97.20;;;;;;5018472;28;20125;-71
2023/08/01 00:42:16;;;;;;;7.13;2.58;;;22.60;95.90;;;;;;5066118;28;20351;-62
2023/08/01 00:44:41;;;;;;;4.72;2.13;;;22.60;96.00;;;;;;5016970;28;20104;-63
2023/08/01 00:47:08;;;;;;;6.55;2.38;;;22.60;96.00;;;;;;5007076;28;20065;-65
2023/08/01 00:49:34;;;;;;;7.90;2.47;;;22.20;96.00;;;;;;5033047;28;20145;-63
2023/08/01 00:51:59;;;;;;;5.78;2.33;;;22.60;96.00;;;;;;5016049;28;20124;-64
2023/08/01 00:54:25;;;;;;;6.07;2.65;;;22.50;95.90;;;;;;5016000;28;20046;-63
2023/08/01 00:56:51;;;;;;;6.93;2.97;;;22.50;96.00;;;;;;5029994;28;20053;-63
2023/08/01 00:59:17;;;;;;;6.22;2.47;;;22.50;96.00;;;;;;5004144;28;20088;-62
2023/08/01 01:01:43;;;;;;;6.28;2.60;;;22.40;95.90;;;;;;5027052;28;20057;-63
2023/08/01 01:04:08;;;;;;;6.90;2.88;;;22.40;96.00;;;;;;5032675;28;20050;-63
2023/08/01 01:06:57;;;;;;;5.03;2.40;;;22.30;95.90;;;;;;5030265;28;20474;-65
2023/08/01 01:09:23;;;;;;;4.88;2.47;;;;;;;;;;5031480;28;20064;-63
2023/08/01 01:11:49;;;;;;;7.03;2.33;;;22.40;97.10;;;;;;5023103;28;20046;-63
2023/08/01 01:14:14;;;;;;;7.05;2.58;;;22.70;97.20;;;;;;5024134;28;20391;-64
2023/08/01 01:16:40;;;;;;;6.38;2.78;;;22.60;96.00;;;;;;5025409;28;20049;-63
2023/08/01 01:19:07;;;;;;;6.68;2.63;;;22.40;96.00;;;;;;5033832;28;20123;-65
2023/08/01 01:21:35;;;;;;;6.68;2.70;;;22.30;96.10;;;;;;5025591;28;20041;-63
2023/08/01 01:24:02;;;;;;;7.53;2.88;;;22.60;96.10;;;;;;5048885;28;20049;-64
2023/08/01 01:26:28;;;;;;;7.63;3.05;;;22.30;97.50;;;;;;5029449;28;20073;-69
2023/08/01 01:28:54;;;;;;;4.93;2.47;;;22.30;97.00;;;;;;5020865;28;20091;-66
2023/08/01 01:31:20;;;;;;;6.57;2.63;;;22.40;97.00;;;;;;5012824;28;20045;-68
2023/08/01 01:33:45;;;;;;;7.00;2.75;;;22.30;97.10;;;;;;5032142;28;20056;-66
2023/08/01 01:36:11;;;;;;;6.20;2.60;;;22.30;97.40;;;;;;5031501;28;20045;-68
2023/08/01 01:38:37;;;;;;;6.80;2.58;;;22.50;95.90;;;;;;5032729;28;20069;-65
2023/08/01 01:41:03;;;;;;;6.50;2.65;;;22.30;95.90;;;;;;5031164;28;20045;-67
2023/08/01 01:43:28;;;;;;;6.03;2.63;;;22.40;95.90;;;;;;5031137;28;20037;-63
2023/08/01 01:45:54;;;;;;;5.82;2.40;;;22.30;97.00;;;;;;5020309;28;20058;-65
2023/08/01 01:48:20;;;;;;;8.35;2.78;;;22.30;97.00;;;;;;5032446;28;20077;-65
2023/08/01 01:50:46;;;;;;;5.80;2.72;;;22.30;96.90;;;;;;5023253;28;20050;-63
2023/08/01 01:53:12;;;;;;;8.20;2.67;;;22.40;95.90;;;;;;5024264;28;20172;-63
2023/08/01 01:55:37;;;;;;;5.97;2.85;;;22.30;95.80;;;;;;5033338;28;20049;-63
2023/08/01 01:58:03;;;;;;;7.72;2.90;;;22.40;95.80;;;;;;5031495;28;20128;-63
2023/08/01 02:00:29;;;;;;;6.82;2.95;;;22.40;97.30;;;;;;5028534;28;20042;-63
2023/08/01 02:02:55;;;;;;;6.55;2.80;;;22.30;97.40;;;;;;5013506;28;20107;-63
2023/08/01 02:05:21;;;;;;;5.80;2.83;;;22.50;95.80;;;;;;5032353;28;20041;-69
2023/08/01 02:07:47;;;;;;;7.80;2.85;;;22.20;95.80;;;;;;5030811;28;20057;-63
2023/08/01 02:10:12;;;;;;;5.18;2.50;;;22.40;95.80;;;;;;5023866;28;20034;-65
2023/08/01 02:12:38;;;;;;;5.80;2.65;;;22.30;95.80;;;;;;5025339;28;20128;-66
2023/08/01 02:15:05;;;;;;;5.80;2.53;;;22.20;96.80;;;;;;5027090;28;20069;-64
2023/08/01 02:17:31;;;;;;;7.40;2.75;;;22.20;96.70;;;;;;5031359;28;20096;-66
2023/08/01 02:19:57;;;;;;;5.63;2.80;;;22.30;96.80;;;;;;5028687;28;20080;-63
2023/08/01 02:22:24;;;;;;;6.15;2.42;;;22.40;95.70;;;;;;5024243;28;20045;-63
2023/08/01 02:24:50;;;;;;;5.72;2.60;;;22.20;97.00;;;;;;5013761;28;20566;-64
2023/08/01 02:27:15;;;;;;;5.97;2.50;;;22.30;96.80;;;;;;5026991;28;20092;-64
2023/08/01 02:29:41;;;;;;;5.90;2.60;;;22.20;97.20;;;;;;5021513;28;20060;-62
2023/08/01 02:32:07;;;;;;;5.95;2.90;;;22.40;95.70;;;;;;5012968;28;20423;-65
2023/08/01 02:34:33;;;;;;;5.97;2.50;;;22.40;95.60;;;;;;5029983;28;20081;-63
2023/08/01 02:36:59;;;;;;;5.38;2.60;;;22.40;96.80;;;;;;5032129;28;20042;-64
2023/08/01 02:39:25;;;;;;;5.35;2.47;;;22.30;96.70;;;;;;5014671;28;20045;-64
2023/08/01 02:41:50;;;;;;;6.20;2.92;;;22.20;95.70;;;;;;5012665;28;20058;-68
2023/08/01 02:44:16;;;;;;;6.07;2.78;;;22.30;96.70;;;;;;5056121;28;20049;-63
2023/08/01 02:46:42;;;;;;;5.32;2.75;;;22.10;95.60;;;;;;5031592;28;20049;-62
2023/08/01 02:49:08;;;;;;;5.15;2.50;;;22.40;95.60;;;;;;5032235;28;20050;-63
2023/08/01 02:51:33;;;;;;;6.85;3.13;;;22.40;95.60;;;;;;5014550;28;20049;-67
2023/08/01 02:53:59;;;;;;;6.47;2.75;;;22.30;96.70;;;;;;5024481;28;20048;-67
2023/08/01 02:56:27;;;;;;;5.70;2.70;;;22.40;96.70;;;;;;5016998;28;20045;-71
2023/08/01 02:58:53;;;;;;;4.97;2.83;;;22.30;96.70;;;;;;5032045;28;20107;-62
2023/08/01 03:01:18;;;;;;;6.85;2.83;;;22.40;95.60;;;;;;5032064;28;20041;-63
2023/08/01 03:03:44;;;;;;;7.68;2.70;;;22.10;96.60;;;;;;5022442;28;20072;-64
2023/08/01 03:06:10;;;;;;;7.88;2.92;;;22.20;96.50;;;;;;5029017;28;20160;-68
2023/08/01 03:08:36;;;;;;;7.10;3.03;;;22.30;96.80;;;;;;5029780;28;20037;-63
2023/08/01 03:11:01;;;;;;;6.40;2.70;;;22.40;96.90;;;;;;5030037;28;20045;-63
2023/08/01 03:13:27;;;;;;;6.45;2.75;;;22.20;97.00;;;;;;5056784;28;20064;-69
2023/08/01 03:15:53;;;;;;;7.63;2.80;;;22.30;96.60;;;;;;5027926;28;20475;-65
2023/08/01 03:18:18;;;;;;;6.70;2.63;;;22.40;96.70;;;;;;5048313;28;20071;-63
2023/08/01 03:20:45;;;;;;;6.85;2.70;;;;;;;;;;5033221;28;20136;-71
2023/08/01 03:23:10;;;;;;;5.18;2.55;;;22.20;96.70;;;;;;5047475;28;20041;-62
2023/08/01 03:25:36;;;;;;;7.07;2.90;;;22.20;96.60;;;;;;5036000;28;20056;-63
2023/08/01 03:28:03;;;;;;;6.18;2.60;;;22.20;96.80;;;;;;5032037;28;20046;-63
2023/08/01 03:30:29;;;;;;;6.20;2.90;;;22.10;95.60;;;;;;5008165;28;20061;-63
2023/08/01 03:32:54;;;;;;;6.57;2.67;;;22.40;95.50;;;;;;5029260;28;20517;-64
2023/08/01 03:35:20;;;;;;;8.68;2.97;;;22.20;96.50;;;;;;5033763;28;20041;-70
2023/08/01 03:37:46;;;;;;;6.47;2.97;;;22.20;96.50;;;;;;5022605;28;20052;-64
2023/08/01 03:40:12;;;;;;;5.57;2.53;;;22.00;96.40;;;;;;5034559;28;20045;-61
2023/08/01 03:42:38;;;;;;;8.23;2.85;;;22.30;95.50;;;;;;5031624;28;20415;-64
2023/08/01 03:45:05;;;;;;;6.32;2.58;;;22.30;96.50;;;;;;5063434;28;20060;-67
2023/08/01 03:47:31;;;;;;;6.55;2.72;;;22.00;96.40;;;;;;5057592;28;20060;-63
2023/08/01 03:49:57;;;;;;;6.88;2.95;;;22.10;95.40;;;;;;5029642;28;20041;-67
2023/08/01 03:52:23;;;;;;;6.07;2.97;;;22.20;96.40;;;;;;5016513;28;21786;-63
2023/08/01 03:54:49;;;;;;;5.28;2.67;;;22.10;96.60;;;;;;5050648;28;20080;-63
2023/08/01 03:57:15;;;;;;;7.80;2.80;;;22.20;96.50;;;;;;5031698;28;20049;-69
2023/08/01 03:59:40;;;;;;;7.03;3.40;;;22.10;95.40;;;;;;5031487;28;20037;-63
2023/08/01 04:02:06;;;;;;;6.88;3.00;;;22.10;96.60;;;;;;5030393;28;20037;-63
2023/08/01 04:04:32;;;;;;;5.93;2.80;;;22.30;96.50;;;;;;5030849;28;20387;-70
2023/08/01 04:06:58;;;;;;;7.18;2.97;;;22.00;95.40;;;;;;5033586;28;20402;-65
2023/08/01 04:09:23;;;;;;;6.35;3.08;;;22.10;96.40;;;;;;5014503;28;20050;-66
2023/08/01 04:11:49;;;;;;;5.93;3.25;;;21.90;96.50;;;;;;5031726;28;20048;-65
2023/08/01 04:14:15;;;;;;;7.20;3.00;;;21.90;96.40;;;;;;5034760;28;20057;-67
2023/08/01 04:16:41;;;;;;;9.25;3.45;;;22.30;96.40;;;;;;5033941;28;20479;-69
2023/08/01 04:19:07;;;;;;;7.00;3.10;;;;;;;;;;5029051;28;20624;-62
2023/08/01 04:21:32;;;;;;;6.22;2.88;;;22.00;96.70;;;;;;5021873;28;20180;-69
2023/08/01 04:23:58;;;;;;;6.20;2.92;;;22.20;95.30;;;;;;5042951;28;20088;-61
2023/08/01 04:26:24;;;;;;;8.05;3.20;;;22.10;96.70;;;;;;5034763;28;20056;-63
2023/08/01 04:28:50;;;;;;;7.55;3.50;;;22.00;96.50;;;;;;5032248;28;20056;-64
2023/08/01 04:31:15;;;;;;;6.40;2.95;;;22.20;95.30;;;;;;5014928;28;20586;-63
2023/08/01 04:33:41;;;;;;;7.45;3.10;;;22.00;95.30;;;;;;5033059;28;20160;-62
2023/08/01 04:36:07;;;;;;;5.32;3.10;;;22.10;96.40;;;;;;5013138;28;20054;-65
2023/08/01 04:38:33;;;;;;;6.28;2.90;;;22.30;96.80;;;;;;5013093;28;20122;-66
2023/08/01 04:41:00;;;;;;;6.50;2.92;;;22.00;95.30;;;;;;5023249;28;20045;-63
2023/08/01 04:43:25;;;;;;;5.70;2.78;;;22.20;96.40;;;;;;5032657;28;20061;-63
2023/08/01 04:45:51;;;;;;;5.78;2.70;;;22.00;95.30;;;;;;5029365;28;20085;-71
2023/08/01 04:48:17;;;;;;;5.88;2.75;;;22.00;96.30;;;;;;5013822;28;20057;-72
2023/08/01 04:50:43;;;;;;;6.80;3.40;;;22.10;95.10;;;;;;5055530;28;20046;-69
2023/08/01 04:53:08;;;;;;;6.53;2.75;;;22.20;95.30;;;;;;5015379;28;20137;-61
2023/08/01 04:55:34;;;;;;;6.85;2.83;;;22.30;95.30;;;;;;5032374;28;20049;-62
2023/08/01 04:58:00;;;;;;;6.68;2.80;;;22.30;95.30;;;;;;5014719;28;20049;-62
2023/08/01 05:00:26;;;;;;;6.13;2.83;;;22.10;95.30;;;;;;5045662;28;20038;-63
2023/08/01 05:02:52;;;;;;;6.63;2.90;;;22.00;96.30;;;;;;5030847;28;20049;-62
2023/08/01 05:05:18;;;;;;;8.07;2.90;;;22.00;96.20;;;;;;5032063;28;20434;-70
2023/08/01 05:07:43;;;;;;;6.00;2.80;;;22.20;96.70;;;;;;5023230;28;20099;-67
2023/08/01 05:10:09;;;;;;;6.60;2.78;;;22.10;96.20;;;;;;5030484;28;20103;-61
2023/08/01 05:12:35;;;;;;;8.05;3.15;;;22.10;96.40;;;;;;5013724;28;20436;-61
2023/08/01 05:15:01;;;;;;;5.50;2.72;;;22.20;95.20;;;;;;5025497;28;20041;-62
2023/08/01 05:17:27;;;;;;;6.63;2.90;;;22.40;96.60;;;;;;5031759;28;20431;-62
2023/08/01 05:19:53;;;;;;;6.20;3.05;;;22.30;96.20;;;;;;5032077;28;20049;-71
2023/08/01 05:22:18;;;;;;;6.20;2.70;;;22.40;95.10;;;;;;5029836;28;20053;-68
2023/08/01 05:24:45;;;;;;;5.95;2.88;;;22.50;95.50;;;;;;5015622;28;20038;-69
2023/08/01 05:27:10;;;;;;;5.45;2.63;;;22.30;96.10;;;;;;5049480;28;20495;-69
2023/08/01 05:29:36;;;;;;;5.32;2.45;;;22.60;95.20;;;;;;5015184;28;20053;-61
2023/08/01 05:32:03;;;;;;;7.53;3.13;;;22.40;96.10;;;;;;5048855;28;20434;-65
2023/08/01 05:34:29;;;;;;;6.45;3.20;;;22.40;94.90;;;;;;5030016;28;20041;-67
2023/08/01 05:36:55;;;;;;;5.80;2.75;;;22.80;94.80;;;;;;5062917;28;20522;-67
2023/08/01 05:39:21;;;;;;;6.45;2.70;;;22.70;94.90;;;;;;5031423;28;20148;-62
2023/08/01 05:41:47;;;;;;;6.13;3.00;;;22.80;95.90;;;;;;5047506;28;20050;-62
2023/08/01 05:44:13;;;;;;;5.53;2.53;;;22.90;95.70;;;;;;5013665;28;20113;-63
2023/08/01 05:46:39;;;;;;;6.40;2.47;;;22.90;95.70;;;;;;5012795;28;20054;-64
2023/08/01 05:49:04;;;;;;;6.40;2.70;;;23.10;95.50;;;;;;5056163;28;20487;-66
2023/08/01 05:51:30;;;;;;;5.90;2.30;;;23.10;94.30;;;;;;5028403;28;20045;-66
2023/08/01 05:53:56;;;;;;;5.55;2.60;;;23.10;94.10;;;;;;5028029;28;20134;-65
2023/08/01 05:56:22;;;;;;;4.75;2.17;;;23.20;94.00;;;;;;5023701;28;20081;-63
2023/08/01 05:58:48;;;;;;;5.10;2.28;;;23.70;93.90;;;;;;5032620;28;20557;-65
2023/08/01 06:01:13;;;;;;;6.50;2.85;;;23.60;94.50;;;;;;5030100;28;20083;-65
2023/08/01 06:03:40;;;;;;;5.32;2.47;;;23.70;93.50;;;;;;5031162;28;20049;-64
2023/08/01 06:06:06;;;;;;;6.53;2.85;;;23.60;93.00;;;;;;5026837;28;20500;-64
2023/08/01 06:08:32;;;;;;;6.13;2.35;;;23.90;92.80;;;;;;5012678;28;20491;-64
2023/08/01 06:10:59;;;;;;;5.10;2.33;;;24.00;93.00;;;;;;5028585;28;20053;-65
2023/08/01 06:13:26;;;;;;;5.00;2.08;;;23.60;92.80;;;;;;5062966;28;20503;-63
2023/08/01 06:15:52;;;;;;;6.53;2.65;;;24.00;93.10;;;;;;5029882;28;20050;-63
2023/08/01 06:18:17;;;;;;;5.63;2.47;;;24.00;93.10;;;;;;5026504;28;20126;-63
2023/08/01 06:20:43;;;;;;;5.30;2.40;;;23.40;93.00;;;;;;5013099;28;20562;-62
2023/08/01 06:23:09;;;;;;;5.53;2.30;;;23.40;93.00;;;;;;5034925;28;20064;-63
2023/08/01 06:25:35;;;;;;;4.90;2.40;;;23.20;94.30;;;;;;5023685;28;20057;-68
2023/08/01 06:28:01;;;;;;;5.28;2.15;;;23.20;94.20;;;;;;5023047;28;20050;-63
2023/08/01 06:30:27;;;;;;;5.60;2.47;;;23.60;93.10;;;;;;5032051;28;20050;-72
2023/08/01 06:32:52;;;;;;;5.22;2.15;;;23.60;93.10;;;;;;5027915;28;20048;-69
2023/08/01 06:35:18;;;;;;;4.60;1.90;;;23.40;93.20;;;;;;5025724;28;20491;-63
2023/08/01 06:37:44;;;;;;;5.32;2.38;;;23.20;93.20;;;;;;5029443;28;20052;-66
2023/08/01 06:40:10;;;;;;;4.50;1.92;;;23.30;93.20;;;;;;5026962;28;20049;-65
2023/08/01 06:42:36;;;;;;;5.45;2.28;;;23.40;93.10;;;;;;5044163;28;20096;-62
2023/08/01 06:45:02;;;;;;;5.05;2.10;;;23.40;94.40;;;;;;5014858;28;20120;-70
2023/08/01 06:47:27;;;;;;;5.85;2.38;;;23.30;93.00;;;;;;5063552;28;20057;-65
2023/08/01 06:49:53;;;;;;;5.15;2.65;;;23.60;93.00;;;;;;5063902;28;20045;-64
2023/08/01 06:52:19;;;;;;;4.15;2.03;;;23.40;92.90;;;;;;5031293;28;20084;-64
2023/08/01 06:54:45;;;;;;;4.97;2.25;;;23.50;92.80;;;;;;4999789;28;20057;-67
2023/08/01 06:57:11;;;;;;;6.10;2.47;;;23.20;94.10;;;;;;5019521;28;20054;-69
2023/08/01 06:59:38;;;;;;;4.00;1.88;;;23.40;92.90;;;;;;5015774;28;20597;-64
2023/08/01 07:02:04;;;;;;;6.15;2.08;;;23.30;92.70;;;;;;5046491;28;20049;-65
2023/08/01 07:04:30;;;;;;;8.18;2.05;;;23.40;92.80;;;;;;5035217;28;20053;-69
2023/08/01 07:06:56;;;;;;;4.10;2.08;;;23.50;93.00;;;;;;5035184;28;20155;-70
2023/08/01 07:09:23;;;;;;;4.50;2.25;;;23.20;92.60;;;;;;5030339;28;20111;-66
2023/08/01 07:11:49;;;;;;;7.03;2.22;;;23.10;92.70;;;;;;5034235;28;20108;-71
2023/08/01 07:14:14;;;;;;;5.75;2.30;;;23.40;93.00;;;;;;5033921;28;20049;-67
2023/08/01 07:16:40;;;;;;;4.53;2.25;;;23.30;93.00;;;;;;5031189;28;20451;-68
2023/08/01 07:19:07;;;;;;;3.90;1.95;;;23.20;94.30;;;;;;5032277;28;20452;-70
2023/08/01 07:21:32;;;;;;;4.10;2.08;;;23.20;93.10;;;;;;5067576;28;20053;-70
2023/08/01 07:23:58;;;;;;;4.95;2.20;;;23.40;93.20;;;;;;5033812;28;20546;-69
2023/08/01 07:26:24;;;;;;;4.57;2.17;;;23.30;93.10;;;;;;5064983;28;20069;-70
2023/08/01 07:28:50;;;;;;;6.25;2.53;;;23.30;93.10;;;;;;5058056;28;20053;-69
2023/08/01 07:31:16;;;;;;;4.40;2.00;;;23.20;93.10;;;;;;5020778;28;20042;-70
2023/08/01 07:33:42;;;;;;;4.25;2.38;;;22.90;93.00;;;;;;5029137;28;20411;-67
2023/08/01 07:36:08;;;;;;;5.15;2.13;;;23.10;93.00;;;;;;5031811;28;20041;-67
2023/08/01 07:38:34;;;;;;;4.60;2.20;;;23.40;92.80;;;;;;5034764;28;20049;-65
2023/08/01 07:41:04;;;;;;;5.20;2.00;;;23.50;94.30;;;;;;5035104;28;20052;-64
2023/08/01 07:43:30;;;;;;;3.80;2.15;;;23.40;93.10;;;;;;5060753;28;20503;-70
2023/08/01 07:45:58;;;;;;;4.70;2.10;;;23.50;92.50;;;;;;5030828;28;20079;-64
2023/08/01 07:48:25;;;;;;;5.70;2.20;;;23.60;93.00;;;;;;5032933;28;20065;-69
2023/08/01 07:50:51;;;;;;;4.82;2.10;;;23.40;92.60;;;;;;5033512;28;20131;-69
2023/08/01 07:53:17;;;;;;;4.72;2.30;;;23.30;92.80;;;;;;5034246;28;20045;-64
2023/08/01 07:55:43;;;;;;;5.45;2.00;;;23.50;94.20;;;;;;5030536;28;20037;-65
2023/08/01 07:58:09;;;;;;;4.65;2.20;;;23.50;94.30;;;;;;5015439;28;20042;-71
2023/08/01 08:00:36;;;;;;;3.90;2.00;;;23.60;92.80;;;;;;5027694;28;20385;-67
2023/08/01 08:03:02;;;;;;;4.68;1.95;;;23.30;92.70;;;;;;5030069;28;20065;-68
2023/08/01 08:05:28;;;;;;;5.97;2.40;;;23.50;92.60;;;;;;5046352;28;20049;-67
2023/08/01 08:07:55;;;;;;;5.22;2.00;;;23.20;92.40;;;;;;5015716;28;20407;-70
2023/08/01 08:10:21;;;;;;;4.93;1.92;;;23.40;93.90;;;;;;5032820;28;20037;-65
2023/08/01 08:12:48;;;;;;;4.88;2.15;;;23.60;92.40;;;;;;5034216;28;20049;-68
2023/08/01 08:15:15;;;;;;;4.75;2.13;;;23.40;92.60;;;;;;5034187;28;20041;-66
2023/08/01 08:17:42;;;;;;;6.03;2.10;;;23.60;92.70;;;;;;5022539;28;20442;-68
2023/08/01 08:20:08;;;;;;;5.78;2.00;;;23.70;92.60;;;;;;5014025;28;20056;-62
2023/08/01 08:22:34;;;;;;;3.53;1.77;;;23.60;92.50;;;;;;5033717;28;20117;-65
2023/08/01 08:24:59;;;;;;;5.30;2.10;;;23.60;92.50;;;;;;5033900;28;20060;-65
2023/08/01 08:27:25;;;;;;;4.90;1.70;;;23.40;92.60;;;;;;5060315;28;20586;-66
2023/08/01 08:29:51;;;;;;;5.80;2.00;;;23.70;92.50;;;;;;5032035;28;20364;-67
2023/08/01 08:32:17;;;;;;;4.05;1.80;;;23.60;92.60;;;;;;5028525;28;20061;-64
2023/08/01 08:34:43;;;;;;;4.05;1.90;;;23.60;92.50;;;;;;5030016;28;20045;-66
2023/08/01 08:37:10;;;;;;;4.45;1.98;;;23.50;92.50;;;;;;5030656;28;20050;-69
2023/08/01 08:39:36;;;;;;;5.50;2.03;;;23.50;93.80;;;;;;5033986;28;20398;-68
2023/08/01 08:42:02;;;;;;;6.53;1.90;;;23.50;92.50;;;;;;5030312;28;20372;-65
2023/08/01 08:44:30;;;;;;;4.03;1.92;;;23.30;92.50;;;;;;5028268;28;20049;-65
2023/08/01 08:46:57;;;;;;;3.30;1.67;;;23.40;92.20;;;;;;5033764;28;20041;-63
2023/08/01 08:49:24;;;;;;;4.00;1.83;;;23.30;92.40;;;;;;5029171;28;20158;-64
2023/08/01 08:51:50;;;;;;;8.60;2.20;;;23.30;92.70;;;;;;5039410;28;20074;-66
2023/08/01 08:54:17;;;;;;;4.13;1.80;;;23.20;92.60;;;;;;5014363;28;20123;-68
2023/08/01 08:56:43;;;;;;;3.92;2.00;;;23.40;92.30;;;;;;5013508;28;20048;-65
2023/08/01 08:59:12;;;;;;;5.65;1.80;;;23.30;92.60;;;;;;5018361;28;20045;-65
2023/08/01 09:01:38;;;;;;;5.10;1.80;;;23.40;94.10;;;;;;5019654;28;20510;-69
2023/08/01 09:04:05;;;;;;;4.88;2.00;;;23.40;92.70;;;;;;5028359;28;20137;-66
2023/08/01 09:06:32;;;;;;;4.20;1.83;;;23.40;92.60;;;;;;5030809;28;20056;-63
2023/08/01 09:09:14;;;;;;;4.28;2.05;;;23.10;92.60;;;;;;5018785;28;20045;-63
2023/08/01 09:11:50;;;;;;;4.63;1.80;;;23.50;92.60;;;;;;5025292;28;20056;-65
2023/08/01 09:14:16;;;;;;;4.95;2.03;;;23.40;92.10;;;;;;5022422;28;20046;-64
2023/08/01 09:16:44;;;;;;;4.40;1.65;;;23.40;92.50;;;;;;5027221;28;20038;-64
2023/08/01 09:19:12;;;;;;;4.15;1.85;;;23.40;93.60;;;;;;5012991;28;20046;-63
2023/08/01 09:21:38;;;;;;;4.15;1.60;;;23.50;92.50;;;;;;5025980;28;20049;-65
2023/08/01 09:24:09;;;;;;;3.72;1.70;;;23.40;93.60;;;;;;5012350;28;20045;-66
2023/08/01 09:26:35;;;;;;;3.08;1.70;;;23.40;93.90;;;;;;5025592;28;20049;-66
2023/08/01 09:29:01;;;;;;;4.80;1.77;;;23.60;92.60;;;;;;5020427;28;20549;-63
2023/08/01 09:31:30;;;;;;;4.93;1.80;;;23.30;92.50;;;;;;5034256;28;20045;-66
2023/08/01 09:33:56;;;;;;;4.00;1.65;;;23.30;93.90;;;;;;5033000;28;20494;-64
2023/08/01 09:36:22;;;;;;;4.63;1.60;;;23.80;94.30;;;;;;5026091;28;20045;-68
2023/08/01 09:38:48;;;;;;;3.47;1.42;;;23.40;94.10;;;;;;5024088;28;20059;-63
2023/08/01 09:41:18;;;;;;;6.35;1.70;;;23.40;92.80;;;;;;5029410;28;20113;-63
2023/08/01 09:43:45;;;;;;;5.00;1.60;;;23.30;92.60;;;;;;5029325;28;20127;-65
2023/08/01 09:46:11;;;;;;;5.32;1.58;;;23.40;93.50;;;;;;5046280;28;20085;-61
2023/08/01 09:48:37;;;;;;;4.85;1.60;;;23.50;92.30;;;;;;5027335;28;20118;-64
2023/08/01 09:51:11;;;;;;;4.55;1.30;;;23.30;93.40;;;;;;5031300;28;20456;-64
2023/08/01 09:53:56;;;;;;;5.97;1.73;;;23.40;92.50;;;;;;5032664;28;20064;-63
2023/08/01 09:56:25;;;;;;;6.03;1.60;;;23.20;92.40;;;;;;5031470;28;20052;-63
2023/08/01 09:58:55;;;;;;;6.18;1.55;;;23.60;91.90;;;;;;5029380;28;20065;-61
2023/08/01 10:01:22;;;;;;;5.55;1.73;;;23.20;92.60;;;;;;5027255;28;20041;-62
2023/08/01 10:03:49;;;;;;;8.63;1.73;;;23.40;92.70;;;;;;5031388;28;20399;-62
2023/08/01 10:06:28;;;;;;;7.53;1.92;;;23.10;92.50;;;;;;5031259;28;20057;-62
2023/08/01 10:08:54;;;;;;;5.35;1.55;;;23.00;94.10;;;;;;5045487;28;20053;-62
2023/08/01 10:11:21;;;;;;;7.45;1.83;;;22.90;92.70;;;;;;5028803;28;20132;-65
2023/08/01 10:13:47;;;;;;;6.20;1.60;;;22.90;92.90;;;;;;5014660;28;20084;-62
2023/08/01 10:16:13;;;;;;;5.97;1.70;;;22.90;92.90;;;;;;5025379;28;20089;-61
2023/08/01 10:18:39;;;;;;;5.40;1.50;;;22.80;94.30;;;;;;5028200;28;20046;-62
2023/08/01 10:21:06;;;;;;;3.95;1.40;;;22.50;94.10;;;;;;5027761;28;20042;-64
2023/08/01 10:23:35;;;;;;;5.57;1.48;;;22.80;93.10;;;;;;5012459;28;20132;-66
2023/08/01 10:26:03;;;;;;;6.10;1.67;;;22.70;94.40;;;;;;5028295;28;20053;-69
2023/08/01 10:28:33;;;;;;;3.97;1.40;;;22.60;94.30;;;;;;5026240;28;20392;-68
2023/08/01 10:31:15;;;;;;;4.15;1.35;;;22.70;93.30;;;;;;5036259;28;20107;-61
2023/08/01 10:33:42;;;;;;;5.07;1.50;;;22.80;94.40;;;;;;5015468;28;20069;-65
2023/08/01 10:36:27;;;;;;;3.17;1.33;;;22.80;94.30;;;;;;5025075;28;20045;-70
2023/08/01 10:38:54;;;;;;;3.42;1.40;;;22.80;94.60;;;;;;5033950;28;20049;-69
2023/08/01 10:41:27;;;;;;;5.55;1.88;;;22.90;93.30;;;;;;5046599;28;20380;-62
2023/08/01 10:44:15;;;;;;;5.72;1.60;;;23.00;93.20;;;;;;5035750;28;20046;-71
2023/08/01 10:47:03;;;;;;;4.45;1.63;;;23.20;92.80;;;;;;5033782;28;20403;-70
2023/08/01 10:49:43;;;;;;;4.57;1.65;;;23.20;92.70;;;;;;5034337;28;20384;-69
2023/08/01 10:52:23;;;;;;;5.65;1.75;;;23.30;93.30;;;;;;5029319;28;20065;-62
2023/08/01 10:55:10;;;;;;;5.00;1.50;;;23.30;92.60;;;;;;5032936;28;20080;-68
2023/08/01 10:57:38;;;;;;;5.88;1.70;;;23.30;94.40;;;;;;5034326;28;20049;-69
2023/08/01 11:00:09;;;;;;;5.97;2.00;;;23.20;93.10;;;;;;5033575;28;20071;-64
2023/08/01 11:02:35;;;;;;;8.63;1.83;;;23.30;92.80;;;;;;5028426;28;20068;-62
2023/08/01 11:05:03;;;;;;;5.75;1.70;;;23.40;94.20;;;;;;5050493;28;20041;-62
2023/08/01 11:07:31;;;;;;;5.85;1.75;;;23.10;92.80;;;;;;5025399;28;20045;-67
2023/08/01 11:10:11;;;;;;;6.78;1.77;;;23.10;94.20;;;;;;5027296;28;20037;-65
2023/08/01 11:12:41;;;;;;;7.72;1.77;;;23.10;93.10;;;;;;5029237;28;20132;-62
2023/08/01 11:15:09;;;;;;;5.20;1.67;;;23.00;92.40;;;;;;5064903;28;20144;-63
2023/08/01 11:17:36;;;;;;;5.07;1.77;;;23.10;92.90;;;;;;5032112;28;20103;-62
2023/08/01 11:20:09;;;;;;;7.07;1.98;;;22.80;94.60;;;;;;5033099;28;20095;-62
2023/08/01 11:22:37;;;;;;;4.90;1.52;;;22.60;94.60;;;;;;5034153;28;20045;-62
2023/08/01 11:25:03;;;;;;;5.05;1.58;;;23.00;93.10;;;;;;5032561;28;20120;-68
2023/08/01 11:27:30;;;;;;;7.10;1.80;;;22.70;94.70;;;;;;5033434;28;20065;-67
2023/08/01 11:29:56;;;;;;;4.40;1.48;;;22.90;93.20;;;;;;5024747;28;20056;-62
2023/08/01 11:32:24;;;;;;;4.55;1.40;;;22.90;94.40;;;;;;5028751;28;20042;-62
2023/08/01 11:34:51;;;;;;;4.82;1.52;;;22.90;94.60;;;;;;5027796;28;20120;-66
2023/08/01 11:37:20;;;;;;;4.43;1.63;;;22.90;93.00;;;;;;5029701;28;20054;-67
2023/08/01 11:39:46;;;;;;;4.30;1.25;;;22.90;93.20;;;;;;5034366;28;20541;-62
2023/08/01 11:42:16;;;;;;;4.30;1.60;;;22.80;93.20;;;;;;5022675;28;20081;-65
2023/08/01 11:44:43;;;;;;;5.00;1.67;;;23.20;94.70;;;;;;5023289;28;20037;-68
2023/08/01 11:47:16;;;;;;;5.72;1.60;;;23.00;92.80;;;;;;5023497;28;20068;-64
2023/08/01 11:49:48;;;;;;;;;;;22.90;93.50;;;;;;5015500;28;20100;-62
2023/08/01 11:52:27;;;;;;;5.03;1.50;;;23.20;93.10;;;;;;5015597;28;19925;-61
2023/08/01 11:54:54;;;;;;;4.25;1.55;;;23.30;93.60;;;;;;5023009;28;20076;-68
2023/08/01 11:57:21;;;;;;;5.35;1.30;;;23.20;93.40;;;;;;5030997;28;20057;-67
2023/08/01 11:59:54;;;;;;;6.55;1.75;;;23.30;93.40;;;;;;5016447;28;20487;-62
2023/08/01 12:02:29;;;;;;;3.80;1.40;;;23.30;92.70;;;;;;4996923;28;20115;-62
2023/08/01 12:04:55;;;;;;;12.93;2.22;;;23.20;93.30;;;;;;5030553;28;20132;-62
2023/08/01 12:07:25;;;;;;;9.40;1.98;;;23.30;92.80;;;;;;5033768;28;20411;-63
2023/08/01 12:09:57;;;;;;;8.20;1.88;;;23.50;93.20;;;;;;5014009;28;20511;-65
2023/08/01 12:12:29;;;;;;;12.45;2.10;;;23.60;93.10;;;;;;5031085;28;20041;-73
2023/08/01 12:14:59;;;;;;;14.38;2.85;;;23.40;92.30;;;;;;5064778;28;20087;-70
2023/08/01 12:17:26;;;;;;;8.43;2.28;;;23.50;92.50;;;;;;5012831;28;20052;-66
2023/08/01 12:19:52;;;;;;;12.95;2.20;;;23.30;92.70;;;;;;5034255;28;20072;-64
2023/08/01 12:22:18;;;;;;;9.30;2.00;;;23.50;92.70;;;;;;5030830;28;20037;-69
2023/08/01 12:24:44;;;;;;;9.55;2.38;;;23.50;92.70;;;;;;5034279;28;20419;-64
2023/08/01 12:27:10;;;;;;;7.50;2.35;;;23.60;92.70;;;;;;5032938;28;20052;-65
2023/08/01 12:29:36;;;;;;;11.70;2.20;;;23.50;92.60;;;;;;5021496;28;20062;-64
2023/08/01 12:32:02;;;;;;;6.20;1.40;;;23.70;92.70;;;;;;5016554;28;20121;-64
2023/08/01 12:34:28;;;;;;;5.45;1.33;;;23.70;92.70;;;;;;5031222;28;20068;-67
2023/08/01 12:36:54;;;;;;;5.60;1.60;;;23.70;92.50;;;;;;5034169;28;20049;-65
2023/08/01 12:39:21;;;;;;;5.50;1.67;;;23.60;92.70;;;;;;5031853;28;20056;-64
2023/08/01 12:41:46;;;;;;;5.50;1.50;;;23.70;92.10;;;;;;5029016;28;20050;-62
2023/08/01 12:44:15;;;;;;;6.03;1.83;;;24.00;92.40;;;;;;5024731;28;20103;-63
2023/08/01 12:46:41;;;;;;;4.80;1.88;;;24.00;92.30;;;;;;5064232;28;20049;-67